• Join FlightAware (Why Join?)
  • Login
  • US Flag 
05:48AM EST


 

Airport Tracker/Info


-or-


 

Live Flight TrackerFlight Track Log ✈ N559LC ✈ 06-Nov-2013 ✈ KSMO - KDTW

Flight Track Log - Related Links

Times and Time Zones

All times are in EST time to prevent confusion due to time zone crossing. See the N559LC flight status page for this flight to view local times or setup timezone preferences in your user account.

Time Position Orientation Groundspeed Altitude Reporting Facility
EST Latitude Longitude Course Direction KTS MPH feet Rate Location/Type
07:06PM 33.9833 -118.5167 59° Northeast 204 235 3,000  Level Southern California TRACON
07:07PM 34.0261 -118.6072 300° West 265 305 5,600 1,740 Climbing Los Angeles Center
07:08PM 34.0964 -118.5944 North 274 315 7,000 1,920 Climbing Los Angeles Center
07:09PM 34.1614 -118.5272 41° Northeast 279 321 9,600 1,980 Climbing Los Angeles Center
07:10PM 34.2381 -118.4772 28° Northeast 309 356 11,200 1,860 Climbing Los Angeles Center
07:11PM 34.6181 -118.0305 59° Northeast  Level FlightAware Approximate
07:11PM 34.3267 -118.4200 28° Northeast 351 404 13,500  Level Los Angeles Center
07:12PM 34.4183 -118.3617 28° Northeast 371 427 16,200 2,160 Climbing Los Angeles Center
07:13PM 34.4986 -118.2786 40° Northeast 378 435 18,000 1,860 Climbing Los Angeles Center
07:14PM 34.5669 -118.1700 53° Northeast 401 461 20,100 1,980 Climbing Los Angeles Center
07:15PM 34.6294 -118.0361 60° Northeast 418 481 22,200 1,800 Climbing Los Angeles Center
07:16PM 34.6503 -117.8914 80° East 436 502 23,900 1,320 Climbing Los Angeles Center
07:17PM 34.6667 -117.7411 82° East 452 520 25,000 720 Climbing Los Angeles Center
07:18PM 34.6850 -117.5578 83° East 461 531 25,400 1,080 Climbing Los Angeles Center
07:19PM 34.7014 -117.4031 83° East 467 537 27,300 1,740 Climbing Los Angeles Center
07:20PM 34.7158 -117.2469 84° East 469 540 29,000 1,440 Climbing Los Angeles Center
07:22PM 34.7314 -117.0892 83° East 473 544 30,400 1,500 Climbing Los Angeles Center
07:23PM 34.7483 -116.9286 83° East 479 551 32,200 1,860 Climbing Los Angeles Center
07:24PM 34.7669 -116.7378 83° East 476 548 34,300 1,740 Climbing Los Angeles Center
07:25PM 34.7825 -116.5783 83° East 477 549 35,800 1,440 Climbing Los Angeles Center
07:26PM 34.7964 -116.4181 84° East 481 554 37,300 1,620 Climbing Los Angeles Center
07:27PM 34.7950 -116.2494 91° East 493 567 39,200 1,500 Climbing Los Angeles Center
07:28PM 34.7925 -116.0936 91° East 473 544 40,500 840 Climbing Los Angeles Center
07:29PM 34.7906 -115.9025 91° East 471 542 41,000 240 Climbing Los Angeles Center
07:30PM 34.7878 -115.7383 91° East 483 556 41,000  Level Los Angeles Center
07:31PM 34.7867 -115.5703 90° East 495 570 41,000  Level Los Angeles Center
07:32PM 34.7825 -115.3828 91° East 494 568 41,000  Level Los Angeles Center
07:33PM 34.7797 -115.2133 91° East 500 575 41,000  Level Los Angeles Center
07:34PM 34.7775 -115.0453 91° East 499 574 41,000  Level Los Angeles Center
07:35PM 34.7850 -114.8769 87° East 504 580 41,000  Level Los Angeles Center
07:36PM 34.8261 -114.7178 72° East 501 577 41,000  Level Los Angeles Center
07:37PM 34.8875 -114.5331 68° East 494 568 41,000  Level Los Angeles Center
07:38PM 34.9381 -114.3772 68° East 493 567 41,000  Level Los Angeles Center
07:39PM 34.9892 -114.2200 68° East 497 572 41,000  Level Los Angeles Center
07:40PM 35.0386 -114.0633 69° East 497 572 41,000  Level Los Angeles Center
07:41PM 35.0889 -113.9075 68° East 495 570 41,000  Level Los Angeles Center
07:42PM 35.1386 -113.7514 69° East 495 570 41,000  Level Los Angeles Center
07:43PM 35.1978 -113.5633 69° East 495 570 41,000  Level Los Angeles Center
07:44PM 35.2472 -113.4053 69° East 498 573 41,000  Level Los Angeles Center
07:45PM 35.2967 -113.2481 69° East 497 572 41,000  Level Los Angeles Center
07:46PM 35.3456 -113.0908 69° East 496 571 41,000  Level Los Angeles Center
07:47PM 35.4003 -112.9117 69° East 497 572 41,000  Level Los Angeles Center
07:48PM 35.4492 -112.7533 69° East 498 573 41,000  Level Los Angeles Center
07:49PM 35.4969 -112.5958 70° East 497 572 41,000  Level Los Angeles Center
07:51PM 35.5453 -112.4378 69° East 497 572 41,000  Level Los Angeles Center
07:52PM 35.5928 -112.2806 70° East 495 570 41,000  Level Los Angeles Center
07:53PM 35.6489 -112.0936 70° East 492 566 41,000  Level Los Angeles Center
07:54PM 35.6983 -111.9303 70° East 498 573 41,000  Level Los Angeles Center
07:55PM 35.7444 -111.7736 70° East 496 571 41,000  Level Los Angeles Center
07:56PM 35.7903 -111.6169 70° East 492 566 41,000  Level Los Angeles Center
07:57PM 35.8364 -111.4569 70° East 493 567 41,000  Level Los Angeles Center
07:58PM 35.8825 -111.2964 70° East 494 568 41,000  Level Los Angeles Center
07:59PM 35.9381 -111.1031 70° East 497 572 41,000  Level Los Angeles Center
08:00PM 36.0103 -110.8575 70° East 507 583 41,000  Level Albuquerque Center
08:01PM 36.0550 -110.6997 71° East 508 585 41,000  Level Albuquerque Center
08:02PM 36.1078 -110.5150 70° East 509 586 41,000  Level Albuquerque Center
08:03PM 36.1481 -110.3761 70° East 507 583 41,000  Level Denver Center
08:04PM 36.2019 -110.1786 71° East 508 585 41,000  Level Denver Center
08:05PM 36.2481 -110.0161 71° East 508 585 41,000  Level Denver Center
08:06PM 36.2925 -109.8569 71° East 508 585 41,000  Level Denver Center
08:07PM 36.3431 -109.6719 71° East 507 583 41,000  Level Denver Center
08:09PM 36.3867 -109.5136 71° East 506 582 41,000  Level Denver Center
08:10PM 36.4367 -109.3283 71° East 505 581 41,000  Level Denver Center
08:11PM 36.4794 -109.1703 71° East 502 578 41,000  Level Denver Center
08:12PM 36.5300 -108.9828 71° East 507 583 41,000  Level Denver Center
08:13PM 36.5733 -108.8208 72° East 510 587 41,000  Level Denver Center
08:14PM 36.6161 -108.6581 72° East 513 590 41,000  Level Denver Center
08:15PM 36.6647 -108.4706 72° East 509 586 41,000  Level Denver Center
08:16PM 36.7069 -108.3094 72° East 509 586 41,000  Level Denver Center
08:17PM 36.7544 -108.1228 72° East 506 582 41,000  Level Denver Center
08:18PM 36.7969 -107.9611 72° East 509 586 41,000  Level Denver Center
08:19PM 36.8436 -107.7728 73° East 510 587 41,000  Level Denver Center
08:20PM 36.8856 -107.6108 72° East 511 588 41,000  Level Denver Center
08:21PM 36.9336 -107.4211 72° East 513 590 41,000  Level Denver Center
08:22PM 36.9756 -107.2567 72° East 516 594 41,000  Level Denver Center
08:23PM 37.0236 -107.0642 73° East 519 597 41,000  Level Denver Center
08:24PM 37.0650 -106.8992 73° East 520 598 41,000  Level Denver Center
08:25PM 37.1039 -106.7311 74° East 523 602 41,000  Level Denver Center
08:26PM 37.1503 -106.5392 73° East 518 596 41,000  Level Denver Center
08:27PM 37.1911 -106.3767 72° East 511 588 41,000  Level Denver Center
08:28PM 37.2381 -106.1833 73° East 517 595 41,000  Level Denver Center
08:29PM 37.2778 -106.0156 73° East 523 602 41,000  Level Denver Center
08:30PM 37.3231 -105.8164 74° East 532 612 41,000  Level Denver Center
08:31PM 37.3614 -105.6453 74° East 533 613 41,000  Level Denver Center
08:32PM 37.4083 -105.4467 73° East 531 611 41,000  Level Denver Center
08:33PM 37.4489 -105.2756 73° East 533 613 41,000  Level Denver Center
08:34PM 37.4944 -105.0808 74° East 544 626 41,000  Level Denver Center
08:35PM 37.5328 -104.9042 75° East 544 626 41,000  Level Denver Center
08:36PM 37.5794 -104.6997 74° East 543 625 41,000  Level Denver Center
08:37PM 37.6186 -104.5236 74° East 543 625 41,000  Level Denver Center
08:38PM 37.6644 -104.3164 74° East 545 627 41,000  Level Denver Center
08:40PM 37.7042 -104.1367 74° East 548 631 41,000  Level Denver Center
08:41PM 37.7433 -103.9561 75° East 547 629 41,000  Level Denver Center
08:42PM 37.7886 -103.7469 75° East 547 629 41,000  Level Denver Center
08:43PM 37.8261 -103.5700 75° East 544 626 41,000  Level Denver Center
08:44PM 37.8639 -103.3925 75° East 545 627 41,000  Level Denver Center
08:45PM 37.9064 -103.1861 75° East 543 625 41,000  Level Denver Center
08:46PM 37.9439 -103.0083 75° East 545 627 41,000  Level Denver Center
08:47PM 37.9864 -102.7992 75° East 548 631 41,000  Level Denver Center
08:48PM 38.0269 -102.6019 75° East 547 629 41,000  Level Denver Center
08:49PM 38.0636 -102.4236 75° East 547 629 41,000  Level Denver Center
08:50PM 38.0997 -102.2431 76° East 550 633 41,000  Level Denver Center
08:51PM 38.1425 -102.0297 76° East 556 640 41,000  Level Denver Center
08:52PM 38.1781 -101.8472 76° East 557 641 41,000  Level Denver Center
08:53PM 38.2200 -101.6344 76° East 554 638 41,000  Level Denver Center
08:54PM 38.2544 -101.4544 76° East 548 631 41,000  Level Denver Center
08:55PM 38.2897 -101.2750 76° East 545 627 41,000  Level Denver Center
08:56PM 38.3289 -101.0667 76° East 540 621 41,000  Level Denver Center
08:57PM 38.3458 -100.9736 77° East 543 625 41,000  Level Kansas City Center
08:58PM 38.3867 -100.7617 76° East 547 629 41,000  Level Kansas City Center
08:59PM 38.4200 -100.5781 77° East 552 635 41,000  Level Kansas City Center
09:00PM 38.4539 -100.3936 77° East 555 639 41,000  Level Kansas City Center
09:01PM 38.4917 -100.1778 77° East 557 641 41,000  Level Kansas City Center
09:02PM 38.5247 -99.9947 77° East 554 638 41,000  Level Kansas City Center
09:03PM 38.5631 -99.7808 77° East 552 635 41,000  Level Kansas City Center
09:04PM 38.5964 -99.5961 77° East 555 639 41,000  Level Kansas City Center
09:05PM 38.6278 -99.4158 77° East 557 641 41,000  Level Kansas City Center
09:06PM 38.6608 -99.2206 78° East 560 644 41,000  Level Kansas City Center
09:07PM 38.6947 -99.0247 77° East 561 646 41,000  Level Kansas City Center
09:08PM 38.7283 -98.8311 77° East 557 641 41,000  Level Kansas City Center
09:09PM 38.7614 -98.6367 78° East 557 641 41,000  Level Kansas City Center
09:10PM 38.7994 -98.4033 78° East 558 642 41,000  Level Kansas City Center
09:11PM 38.8317 -98.2094 78° East 555 639 41,000  Level Kansas City Center
09:12PM 38.8631 -98.0150 78° East 554 638 41,000  Level Kansas City Center
09:13PM 38.8956 -97.8136 78° East 546 628 41,000  Level Kansas City Center
09:14PM 38.9253 -97.6306 78° East 547 629 41,000  Level Kansas City Center
09:15PM 38.9775 -97.4217 72° East 553 636 41,000  Level Kansas City Center
09:16PM 39.0256 -97.2439 71° East 547 629 41,000  Level Kansas City Center
09:17PM 39.0725 -97.0719 71° East 535 616 41,000  Level Kansas City Center
09:18PM 39.1258 -96.8700 71° East 533 613 41,000  Level Kansas City Center
09:19PM 39.1708 -96.6925 72° East 540 621 41,000  Level Kansas City Center
09:20PM 39.2172 -96.5139 71° East 545 627 41,000  Level Kansas City Center
09:21PM 39.2694 -96.2986 73° East 551 634 41,000  Level Kansas City Center
09:22PM 39.3147 -96.1214 72° East 552 635 41,000  Level Kansas City Center
09:23PM 39.3675 -95.9092 72° East 555 639 41,000  Level Kansas City Center
09:24PM 39.4128 -95.7250 72° East 561 646 41,000  Level Kansas City Center
09:25PM 39.4589 -95.5381 72° East 565 650 41,000  Level Kansas City Center
09:26PM 39.5111 -95.3214 73° East 563 648 41,000  Level Kansas City Center
09:27PM 39.5564 -95.1328 73° East 561 646 41,000  Level Kansas City Center
09:28PM 39.6011 -94.9481 73° East 557 641 41,000  Level Kansas City Center
09:29PM 39.6528 -94.7322 73° East 559 643 41,000  Level Kansas City Center
09:30PM 39.6969 -94.5461 73° East 563 648 41,000  Level Kansas City Center
09:31PM 39.7397 -94.3586 73° East 564 649 41,000  Level Kansas City Center
09:32PM 39.7903 -94.1389 73° East 568 654 41,000  Level Kansas City Center
09:33PM 39.8367 -93.9331 74° East 573 659 41,000  Level Kansas City Center
09:34PM 39.8814 -93.7386 73° East 568 654 41,000  Level Kansas City Center
09:35PM 39.9253 -93.5386 74° East 574 661 41,000  Level Kansas City Center
09:36PM 39.9714 -93.3425 73° East 573 659 41,000  Level Kansas City Center
09:37PM 40.0150 -93.1414 74° East 578 665 41,000  Level Kansas City Center
09:38PM 40.0581 -92.9414 74° East 579 666 41,000  Level Kansas City Center
09:40PM 40.1100 -92.6989 74° East 583 671 41,000  Level Kansas City Center
09:41PM 40.1525 -92.5006 74° East 589 678 41,000  Level Kansas City Center
09:42PM 40.1958 -92.3006 74° East 588 677 41,000  Level Kansas City Center
09:43PM 40.2369 -92.0967 75° East 590 679 41,000  Level Kansas City Center
09:44PM 40.2781 -91.8919 75° East 588 677 41,000  Level Kansas City Center
09:45PM 40.3272 -91.6456 75° East 589 678 41,000  Level Kansas City Center
09:46PM 40.3678 -91.4386 76° East 590 679 41,000  Level Kansas City Center
09:47PM 40.4111 -91.2192 75° East 585 673 41,000  Level Kansas City Center
09:48PM 40.4508 -91.0153 76° East 579 666 41,000  Level Kansas City Center
09:48PM 40.4667 -90.9350 75° East 578 665 41,000  Level Chicago Center
09:49PM 40.5344 -90.6956 70° East 584 672 41,000  Level Chicago Center
09:50PM 40.5947 -90.4961 68° East 587 676 41,000  Level Chicago Center
09:51PM 40.6561 -90.2942 68° East 592 681 41,000  Level Chicago Center
09:52PM 40.7133 -90.1047 68° East 585 673 41,000  Level Chicago Center
09:53PM 40.7742 -89.9053 68° East 587 676 41,000  Level Chicago Center
09:54PM 40.8281 -89.7033 71° East 588 677 41,000  Level Chicago Center
09:55PM 40.9017 -89.4708 67° East 597 687 41,000  Level Chicago Center
09:56PM 40.9611 -89.2667 69° East 596 686 41,000  Level Chicago Center
09:57PM 41.0217 -89.0558 69° East 591 680 41,000  Level Chicago Center
09:59PM 41.0775 -88.8567 70° East 583 671 41,000 -360 Level Chicago Center
10:00PM 41.1342 -88.6578 69° East 581 669 40,300 -1,320 Descending Chicago Center
10:01PM 41.1919 -88.4550 69° East 594 684 38,400 -2,040 Descending Chicago Center
10:02PM 41.2589 -88.2156 70° East 584 672 36,100 -2,040 Descending Chicago Center
10:03PM 41.3142 -88.0175 70° East 589 678 34,300 -1,560 Descending Chicago Center
10:04PM 41.3689 -87.8167 70° East 600 690 33,000 -660 Descending Chicago Center
10:05PM 41.4261 -87.6114 70° East 599 689 33,000  Level Chicago Center
10:06PM 41.4822 -87.4061 70° East 593 682 33,000  Level Chicago Center
10:07PM 41.5483 -87.1592 70° East 593 682 33,000  Level Chicago Center
10:08PM 41.6036 -86.9519 70° East 596 686 33,000 -180 Level Chicago Center
10:09PM 41.6578 -86.7428 71° East 598 688 32,700 -1,080 Descending Chicago Center
10:10PM 41.7106 -86.5408 71° East 603 694 30,900 -1,800 Descending Chicago Center
10:11PM 41.7628 -86.3356 71° East 586 674 29,100 -1,860 Descending Chicago Center
10:12PM 41.8050 -86.1289 75° East 578 665 27,200 -1,860 Descending Chicago Center
10:13PM 41.8444 -85.9267 75° East 565 650 25,300 -1,920 Descending Chicago Center
10:14PM 41.8744 -85.7328 78° East 538 619 23,300 -2,160 Descending Chicago Center
10:15PM 41.8717 -85.5075 91° East 504 580 20,900 -2,280 Descending Chicago Center
10:16PM 41.8678 -85.3242 92° East 483 556 18,700 -2,100 Descending Chicago Center
10:17PM 41.8628 -85.1636 92° East 430 495 16,700 -1,320 Descending Chicago Center
10:18PM 41.8586 -85.0117 92° East 408 470 16,100 -300 Descending Chicago Center
10:19PM 41.8539 -84.8594 92° East 409 471 16,100  Level Chicago Center
10:20PM 41.8497 -84.7092 92° East 405 466 16,100  Level Chicago Center
10:21PM 41.8439 -84.5586 93° East 403 464 16,100  Level Chicago Center
10:22PM 41.8389 -84.4100 93° East 400 460 16,100 -720 Level Chicago Center
10:23PM 41.8342 -84.2614 92° East 401 461 14,700 -1,560 Descending Chicago Center
10:24PM 41.8286 -84.1197 93° East 387 445 13,000 -1,260 Descending Chicago Center
10:25PM 41.8922 -84.0136 51° Northeast 388 447 12,200 -420 Descending Chicago Center
10:26PM 41.9733 -83.9153 42° Northeast 385 443 12,200  Level Chicago Center
10:27PM 42.0542 -83.8211 41° Northeast 386 444 12,200 -120 Level Chicago Center
10:28PM 42.1436 -83.6886 48° Northeast 383 441 12,000 -180 Descending Cleveland Center
10:28PM 42.1544 -83.6753 42° Northeast 384 442 12,000  Level Cleveland Center
10:29PM 42.2083 -83.5894 50° Northeast 361 415 12,000  Level Cleveland Center
10:29PM 42.2189 -83.5775 40° Northeast 336 387 12,000 -1,020 Level Cleveland Center
10:30PM 42.2639 -83.5039 50° Northeast 339 390 11,000 -1,500 Descending Cleveland Center
10:30PM 42.2786 -83.4847 44° Northeast 331 381 10,500 -1,680 Descending Cleveland Center
10:31PM 42.3333 -83.4297 37° Northeast 311 358 9,300 -1,620 Descending Cleveland Center
10:31PM 42.3489 -83.4156 34° Northeast 306 352 8,900 -1,380 Descending Cleveland Center
10:32PM 42.4081 -83.3739 27° Northeast 300 345 7,900 -1,140 Descending Cleveland Center
10:32PM 42.4219 -83.3667 21° North 277 319 7,800 -840 Descending Cleveland Center
10:33PM 42.4386 -83.2869 74° East 208 239 7,000 -1,140 Descending Cleveland Center
10:34PM 42.4203 -83.2208 111° Southeast 208 239 5,600 -1,500 Descending Cleveland Center
10:34PM 42.4164 -83.2217 189° South 178 205 5,500 -1,500 Descending Cleveland Center
10:35PM 42.3722 -83.2250 183° South 190 219 4,100 -1,500 Descending Cleveland Center
10:35PM 42.3656 -83.2286 202° Southwest 181 208 4,000 -900 Descending Cleveland Center
10:36PM 42.3283 -83.2517 205° Southwest 175 201 3,200 -900 Descending Cleveland Center
10:36PM 42.3236 -83.2567 218° Southwest 173 199 3,100 -900 Descending Cleveland Center
10:37PM 42.2892 -83.2814 208° Southwest 167 192 2,300 -900 Descending Cleveland Center
10:37PM 42.2858 -83.2853 221° Southwest 145 167 2,200 -780 Descending Cleveland Center
10:38PM 42.2544 -83.3069 207° Southwest 153 176 1,500 -840 Descending Cleveland Center
10:38PM 42.2503 -83.3114 218° Southwest 141 162 1,400 -540 Descending Cleveland Center
10:39PM 42.2158 -83.3369 209° Southwest 147 169 1,000 -420 Descending Cleveland Center